createdAt,value
2023-04-22T00:01:56.679Z,95024.56
2023-04-22T00:04:23.309Z,95015.28
2023-04-22T00:06:49.945Z,95014.19
2023-04-22T00:09:16.461Z,95017.75
2023-04-22T00:11:42.924Z,95014.06
2023-04-22T00:14:09.398Z,95012.78
2023-04-22T00:16:35.987Z,95012.78
2023-04-22T00:19:02.574Z,95025.81
2023-04-22T00:21:29.058Z,95016.16
2023-04-22T00:23:55.590Z,95013.91
2023-04-22T00:26:22.100Z,95010.97
2023-04-22T00:28:48.559Z,95012.72
2023-04-22T00:31:15.157Z,95004.06
2023-04-22T00:33:41.914Z,95002.75
2023-04-22T00:36:08.530Z,94995.00
2023-04-22T00:38:35.092Z,95000.75
2023-04-22T00:41:02.874Z,95002.03
2023-04-22T00:43:29.300Z,94986.91
2023-04-22T00:45:57.245Z,94999.44
2023-04-22T00:48:27.445Z,95003.94
2023-04-22T00:50:55.175Z,95001.19
2023-04-22T00:53:21.604Z,95009.41
2023-04-22T00:55:48.456Z,95005.53
2023-04-22T00:58:14.981Z,95001.53
2023-04-22T01:00:41.580Z,95001.38
2023-04-22T01:03:08.404Z,94993.22
2023-04-22T01:05:35.810Z,94997.41
2023-04-22T01:08:02.531Z,94998.06
2023-04-22T01:10:29.450Z,94994.06
2023-04-22T01:12:55.902Z,94987.47
2023-04-22T01:15:22.351Z,94987.00
2023-04-22T01:17:49.102Z,94990.38
2023-04-22T01:20:15.819Z,94987.84
2023-04-22T01:22:45.522Z,94984.44
2023-04-22T01:25:12.483Z,94990.19
2023-04-22T01:27:39.724Z,94988.09
2023-04-22T01:30:07.779Z,94998.03
2023-04-22T01:32:34.690Z,94983.22
2023-04-22T01:35:01.146Z,94984.34
2023-04-22T01:37:28.722Z,94989.03
2023-04-22T01:39:57.041Z,94977.63
2023-04-22T01:42:24.411Z,94978.59
2023-04-22T01:44:50.913Z,94972.34
2023-04-22T01:47:17.407Z,94976.84
2023-04-22T01:49:43.869Z,94975.09
2023-04-22T01:52:10.635Z,94971.44
2023-04-22T01:54:37.156Z,94970.97
2023-04-22T01:57:10.708Z,94960.50
2023-04-22T01:59:38.199Z,94972.56
2023-04-22T02:02:04.878Z,94970.31
2023-04-22T02:04:31.441Z,94976.72
2023-04-22T02:06:57.980Z,94976.06
2023-04-22T02:09:24.568Z,94978.59
2023-04-22T02:11:51.010Z,94980.03
2023-04-22T02:14:17.517Z,94983.22
2023-04-22T02:16:44.221Z,94986.09
2023-04-22T02:19:10.665Z,94974.50
2023-04-22T02:21:37.118Z,94982.38
2023-04-22T02:24:03.752Z,94975.78
2023-04-22T02:26:30.791Z,94979.31
2023-04-22T02:28:57.268Z,94986.06
2023-04-22T02:31:23.838Z,94984.78
2023-04-22T02:33:50.278Z,94980.44
2023-04-22T02:36:16.742Z,94974.66
2023-04-22T02:38:43.187Z,94981.25
2023-04-22T02:41:09.693Z,94974.31
2023-04-22T02:43:36.257Z,94973.97
2023-04-22T02:46:02.706Z,94968.38
2023-04-22T02:48:29.224Z,94954.38
2023-04-22T02:50:55.777Z,94955.03
2023-04-22T02:53:22.243Z,94950.84
2023-04-22T02:55:48.672Z,94936.03
2023-04-22T02:58:15.196Z,94946.16
2023-04-22T03:00:41.638Z,94944.38
2023-04-22T03:03:08.314Z,94935.03
2023-04-22T03:05:34.914Z,94939.38
2023-04-22T03:08:01.448Z,94935.69
2023-04-22T03:10:27.891Z,94928.00
2023-04-22T03:12:54.376Z,94926.41
2023-04-22T03:15:21.711Z,94926.75
2023-04-22T03:17:48.450Z,94920.34
2023-04-22T03:20:15.307Z,94923.53
2023-04-22T03:22:41.797Z,94921.28
2023-04-22T03:25:08.747Z,94917.41
2023-04-22T03:27:35.255Z,94906.13
2023-04-22T03:30:01.875Z,94913.34
2023-04-22T03:32:28.472Z,94907.41
2023-04-22T03:34:54.969Z,94909.00
2023-04-22T03:37:21.546Z,94902.72
2023-04-22T03:39:48.197Z,94893.41
2023-04-22T03:42:15.568Z,94909.28
2023-04-22T03:44:42.064Z,94901.84
2023-04-22T03:47:08.524Z,94905.38
2023-04-22T03:49:35.447Z,94886.56
2023-04-22T03:52:01.977Z,94895.09
2023-04-22T03:54:28.398Z,94897.97
2023-04-22T03:56:54.865Z,94901.16
2023-04-22T03:59:21.460Z,94905.38
2023-04-22T04:01:48.492Z,94907.16
2023-04-22T04:04:15.132Z,94917.94
2023-04-22T04:06:41.798Z,94915.41
2023-04-22T04:09:08.293Z,94903.41
2023-04-22T04:11:34.809Z,94911.59
2023-04-22T04:14:01.233Z,94919.16
2023-04-22T04:16:27.830Z,94919.28
2023-04-22T04:18:54.334Z,94919.75
2023-04-22T04:21:20.836Z,94919.75
2023-04-22T04:23:47.662Z,94920.22
2023-04-22T04:26:15.069Z,94910.06
2023-04-22T04:28:41.840Z,94918.63
2023-04-22T04:31:08.345Z,94926.34
2023-04-22T04:33:36.981Z,94912.69
2023-04-22T04:36:03.566Z,94924.09
2023-04-22T04:38:30.633Z,94905.75
2023-04-22T04:40:58.055Z,94894.94
2023-04-22T04:43:26.156Z,94903.81
2023-04-22T04:45:53.384Z,94902.69
2023-04-22T04:48:19.971Z,94893.66
2023-04-22T04:50:47.143Z,94896.06
2023-04-22T04:53:13.734Z,94896.06
2023-04-22T04:55:40.359Z,94905.06
2023-04-22T04:58:06.947Z,94899.28
2023-04-22T05:00:33.485Z,94891.53
2023-04-22T05:03:00.170Z,94885.59
2023-04-22T05:05:26.791Z,94893.66
2023-04-22T05:07:53.827Z,94889.34
2023-04-22T05:10:21.485Z,94899.94
2023-04-22T05:12:48.031Z,94893.00
2023-04-22T05:15:15.372Z,94905.03
2023-04-22T05:17:41.964Z,94901.56
2023-04-22T05:20:10.262Z,94900.63
2023-04-22T05:22:37.212Z,94893.00
2023-04-22T05:25:04.798Z,94896.97
2023-04-22T05:27:31.307Z,94896.22
2023-04-22T05:29:57.799Z,94893.97
2023-04-22T05:32:24.404Z,94896.84
2023-04-22T05:34:51.104Z,94902.19
2023-04-22T05:37:17.671Z,94892.06
2023-04-22T05:39:44.259Z,94891.94
2023-04-22T05:42:11.106Z,94892.88
2023-04-22T05:44:37.689Z,94894.53
2023-04-22T05:47:04.154Z,94886.63
2023-04-22T05:49:30.688Z,94886.03
2023-04-22T05:51:57.117Z,94900.31
2023-04-22T05:54:23.586Z,94894.72
2023-04-22T05:56:50.128Z,94897.84
2023-04-22T05:59:17.875Z,94908.06
2023-04-22T06:01:45.944Z,94911.47
2023-04-22T06:04:12.659Z,94901.88
2023-04-22T06:06:39.422Z,94907.69
2023-04-22T06:09:07.204Z,94915.56
2023-04-22T06:11:34.070Z,94922.47
2023-04-22T06:14:01.218Z,94924.28
2023-04-22T06:16:27.909Z,94914.66
2023-04-22T06:18:54.343Z,94909.22
2023-04-22T06:21:20.879Z,94913.56
2023-04-22T06:23:47.365Z,94911.81
2023-04-22T06:26:13.806Z,94917.53
2023-04-22T06:28:40.334Z,94916.63
2023-04-22T06:31:07.012Z,94913.19
2023-04-22T06:33:33.501Z,94910.66
2023-04-22T06:36:00.192Z,94907.13
2023-04-22T06:38:26.807Z,94912.63
2023-04-22T06:40:53.320Z,94919.94
2023-04-22T06:43:19.778Z,94926.22
2023-04-22T06:45:46.357Z,94923.06
2023-04-22T06:48:12.837Z,94908.00
2023-04-22T06:50:40.897Z,94889.84
2023-04-22T06:53:07.412Z,94882.28
2023-04-22T06:55:33.839Z,94880.06
2023-04-22T06:58:00.299Z,94874.56
2023-04-22T07:00:28.064Z,94879.66
2023-04-22T07:02:54.651Z,94874.19
2023-04-22T07:05:21.183Z,94878.13
2023-04-22T07:07:47.696Z,94876.53
2023-04-22T07:10:14.648Z,94863.94
2023-04-22T07:12:41.582Z,94875.75
2023-04-22T07:15:08.582Z,94884.63
2023-04-22T07:17:35.040Z,94887.53
2023-04-22T07:20:02.278Z,94892.31
2023-04-22T07:22:28.712Z,94900.66
2023-04-22T07:24:55.209Z,94900.66
2023-04-22T07:27:21.722Z,94895.78
2023-04-22T07:29:48.238Z,94898.28
2023-04-22T07:32:14.746Z,94887.28
2023-04-22T07:34:41.197Z,94886.38
2023-04-22T07:37:09.467Z,94883.16
2023-04-22T07:39:36.113Z,94880.38
2023-04-22T07:42:03.298Z,94872.09
2023-04-22T07:44:29.818Z,94875.59
2023-04-22T07:46:56.331Z,94872.28
2023-04-22T07:49:22.828Z,94867.81
2023-04-22T07:51:49.287Z,94867.66
2023-04-22T07:54:15.887Z,94866.19
2023-04-22T07:56:42.518Z,94868.22
2023-04-22T07:59:08.944Z,94862.25
2023-04-22T08:01:35.456Z,94886.47
2023-04-22T08:04:02.234Z,94894.31
2023-04-22T08:06:28.887Z,94900.41
2023-04-22T08:08:55.351Z,94903.75
2023-04-22T08:11:21.974Z,94902.72
2023-04-22T08:13:48.383Z,94911.41
2023-04-22T08:16:14.889Z,94913.81
2023-04-22T08:18:41.521Z,94907.06
2023-04-22T08:21:08.012Z,94921.53
2023-04-22T08:23:34.519Z,94918.97
2023-04-22T08:26:01.136Z,94926.22
2023-04-22T08:28:27.651Z,94928.44
2023-04-22T08:30:54.096Z,94928.97
2023-04-22T08:33:20.698Z,94925.25
2023-04-22T08:35:47.864Z,94931.31
2023-04-22T08:38:14.336Z,94932.47
2023-04-22T08:40:42.400Z,94932.91
2023-04-22T08:43:09.402Z,94916.19
2023-04-22T08:45:39.373Z,94927.00
2023-04-22T08:48:08.879Z,94916.69
2023-04-22T08:50:37.676Z,94930.56
2023-04-22T08:53:04.195Z,94932.88
2023-04-22T08:55:31.837Z,94935.06
2023-04-22T08:58:00.899Z,94931.78
2023-04-22T09:00:27.538Z,94919.88
2023-04-22T09:02:54.830Z,94926.19
2023-04-22T09:05:24.780Z,94917.78
2023-04-22T09:07:52.766Z,94914.59
2023-04-22T09:10:20.040Z,94918.84
2023-04-22T09:12:47.128Z,94917.59
2023-04-22T09:15:13.651Z,94910.44
2023-04-22T09:17:41.415Z,94911.84
2023-04-22T09:20:12.833Z,94908.78
2023-04-22T09:22:42.585Z,94909.47
2023-04-22T09:25:22.733Z,94922.41
2023-04-22T09:27:54.280Z,94920.81
2023-04-22T09:30:47.240Z,94923.28
2023-04-22T09:33:14.495Z,94928.69
2023-04-22T09:35:42.262Z,94925.00
2023-04-22T09:38:10.964Z,94925.81
2023-04-22T09:40:41.546Z,94912.31
2023-04-22T09:43:09.151Z,94917.97
2023-04-22T09:45:37.810Z,94907.91
2023-04-22T09:48:08.024Z,94904.59
2023-04-22T09:50:35.126Z,94918.47
2023-04-22T09:53:07.893Z,94928.53
2023-04-22T09:55:40.488Z,94926.69
2023-04-22T09:58:10.421Z,94924.19
2023-04-22T10:00:48.957Z,94933.78
2023-04-22T10:03:16.032Z,94938.72
2023-04-22T10:05:45.456Z,94943.97
2023-04-22T10:08:13.279Z,94936.59
2023-04-22T10:10:40.503Z,94944.63
2023-04-22T10:13:09.073Z,94941.53
2023-04-22T10:15:45.180Z,94947.22
2023-04-22T10:18:18.772Z,94946.34
2023-04-22T10:20:46.385Z,94940.28
2023-04-22T10:23:18.112Z,94949.19
2023-04-22T10:25:52.908Z,94946.00
2023-04-22T10:28:23.721Z,94956.81
2023-04-22T10:30:50.637Z,94953.06
2023-04-22T10:33:31.736Z,94955.47
2023-04-22T10:36:19.305Z,94965.00
2023-04-22T10:38:54.758Z,94961.94
2023-04-22T10:41:26.053Z,94958.81
2023-04-22T10:44:00.306Z,94958.66
2023-04-22T10:46:37.662Z,94956.69
2023-04-22T10:49:15.725Z,94961.69
2023-04-22T10:51:47.613Z,94960.53
2023-04-22T10:54:28.069Z,94969.38
2023-04-22T10:57:02.852Z,94962.13
2023-04-22T10:59:30.279Z,94976.31
2023-04-22T11:02:06.705Z,94961.28
2023-04-22T11:04:33.941Z,94967.59
2023-04-22T11:07:20.552Z,94967.91
2023-04-22T11:09:50.717Z,94976.38
2023-04-22T11:12:35.505Z,94981.66
2023-04-22T11:15:05.306Z,94982.25
2023-04-22T11:17:31.789Z,94985.44
2023-04-22T11:20:00.212Z,94986.16
2023-04-22T11:22:27.507Z,94991.16
2023-04-22T11:24:58.613Z,95005.22
2023-04-22T11:27:30.249Z,95005.19
2023-04-22T11:30:12.805Z,95015.09
2023-04-22T11:32:41.700Z,95020.44
2023-04-22T11:35:35.022Z,95028.16
2023-04-22T11:38:06.371Z,95035.53
2023-04-22T11:40:38.033Z,95029.31
2023-04-22T11:43:07.267Z,95035.09
2023-04-22T11:45:36.181Z,95031.47
2023-04-22T11:48:04.619Z,95035.38
2023-04-22T11:50:36.785Z,95035.28
2023-04-22T11:53:05.642Z,95037.59
2023-04-22T11:55:34.681Z,95046.13
2023-04-22T11:58:08.711Z,95052.06
2023-04-22T12:00:37.894Z,95047.28
2023-04-22T12:03:08.084Z,95059.34
2023-04-22T12:05:37.964Z,95057.75
2023-04-22T12:08:13.034Z,95055.44
2023-04-22T12:10:52.545Z,95050.28
2023-04-22T12:13:21.234Z,95052.25
2023-04-22T12:15:48.514Z,95064.41
2023-04-22T12:18:15.069Z,95075.69
2023-04-22T12:20:42.598Z,95071.56
2023-04-22T12:23:14.405Z,95075.22
2023-04-22T12:25:41.780Z,95068.25
2023-04-22T12:28:08.725Z,95070.13
2023-04-22T12:30:35.289Z,95075.34
2023-04-22T12:33:02.039Z,95076.78
2023-04-22T12:35:28.496Z,95072.88
2023-04-22T12:37:55.088Z,95075.25
2023-04-22T12:40:21.639Z,95070.13
2023-04-22T12:42:48.064Z,95080.66
2023-04-22T12:45:14.612Z,95071.53
2023-04-22T12:47:41.117Z,95077.38
2023-04-22T12:50:08.983Z,95074.63
2023-04-22T12:52:35.735Z,95069.84
2023-04-22T12:55:02.358Z,95073.91
2023-04-22T12:57:28.919Z,95076.75
2023-04-22T12:59:55.732Z,95066.53
2023-04-22T13:02:22.285Z,95069.75
2023-04-22T13:04:48.823Z,95063.34
2023-04-22T13:07:17.320Z,95065.56
2023-04-22T13:09:44.376Z,95076.84
2023-04-22T13:12:11.207Z,95074.97
2023-04-22T13:14:37.811Z,95078.44
2023-04-22T13:17:04.287Z,95072.75
2023-04-22T13:19:31.810Z,95071.84
2023-04-22T13:21:58.393Z,95064.13
2023-04-22T13:24:24.834Z,95067.72
2023-04-22T13:26:51.277Z,95062.91
2023-04-22T13:29:17.839Z,95067.16
2023-04-22T13:31:47.238Z,95066.72
2023-04-22T13:34:15.253Z,95062.47
2023-04-22T13:36:41.774Z,95062.63
2023-04-22T13:39:08.912Z,95066.97
2023-04-22T13:41:36.084Z,95067.69
2023-04-22T13:44:04.348Z,95070.13
2023-04-22T13:46:31.134Z,95051.78
2023-04-22T13:48:58.607Z,95069.09
2023-04-22T13:51:25.112Z,95064.47
2023-04-22T13:53:51.834Z,95063.88
2023-04-22T13:56:18.372Z,95062.81
2023-04-22T13:58:44.893Z,95068.56
2023-04-22T14:01:11.432Z,95065.47
2023-04-22T14:03:38.156Z,95055.06
2023-04-22T14:06:04.833Z,95063.94
2023-04-22T14:08:31.357Z,95065.78
2023-04-22T14:10:59.406Z,95056.63
2023-04-22T14:13:29.823Z,95053.28
2023-04-22T14:15:56.681Z,95046.81
2023-04-22T14:18:23.535Z,95051.97
2023-04-22T14:20:51.892Z,95048.69
2023-04-22T14:23:19.303Z,95050.53
2023-04-22T14:25:47.622Z,95062.03
2023-04-22T14:28:15.290Z,95056.09
2023-04-22T14:30:42.420Z,95058.03
2023-04-22T14:33:09.776Z,95059.78
2023-04-22T14:35:37.444Z,95057.28
2023-04-22T14:38:07.501Z,95067.03
2023-04-22T14:40:34.059Z,95068.19
2023-04-22T14:43:03.340Z,95065.88
2023-04-22T14:45:31.206Z,95070.56
2023-04-22T14:47:58.617Z,95074.47
2023-04-22T14:50:25.742Z,95074.81
2023-04-22T14:52:53.004Z,95069.22
2023-04-22T14:55:23.602Z,95074.03
2023-04-22T14:57:53.182Z,95070.84
2023-04-22T15:00:19.879Z,95071.78
2023-04-22T15:02:46.558Z,95073.81
2023-04-22T15:05:13.197Z,95074.97
2023-04-22T15:07:39.694Z,95080.72
2023-04-22T15:10:06.610Z,95073.63
2023-04-22T15:12:33.124Z,95069.72
2023-04-22T15:14:59.649Z,95075.09
2023-04-22T15:17:27.308Z,95086.09
2023-04-22T15:19:57.572Z,95077.06
2023-04-22T15:22:25.196Z,95084.25
2023-04-22T15:24:51.852Z,95085.41
2023-04-22T15:27:18.851Z,95085.50
2023-04-22T15:29:46.489Z,95089.41
2023-04-22T15:32:13.309Z,95080.34
2023-04-22T15:34:39.815Z,95082.53
2023-04-22T15:37:06.284Z,95088.72
2023-04-22T15:39:32.826Z,95077.72
2023-04-22T15:41:59.267Z,95086.84
2023-04-22T15:44:25.712Z,95085.44
2023-04-22T15:46:52.453Z,95084.63
2023-04-22T15:49:19.761Z,95080.28
2023-04-22T15:51:46.251Z,95078.97
2023-04-22T15:54:12.918Z,95086.78
2023-04-22T15:56:39.396Z,95074.88
2023-04-22T15:59:05.889Z,95072.50
2023-04-22T16:01:32.432Z,95072.06
2023-04-22T16:03:59.112Z,95081.78
2023-04-22T16:06:25.818Z,95077.97
2023-04-22T16:08:52.567Z,95074.78
2023-04-22T16:11:19.117Z,95086.16
2023-04-22T16:13:46.316Z,95077.94
2023-04-22T16:16:13.036Z,95084.13
2023-04-22T16:18:42.143Z,95086.66
2023-04-22T16:21:10.683Z,95085.38
2023-04-22T16:23:37.458Z,95090.31
2023-04-22T16:26:05.624Z,95089.31
2023-04-22T16:28:32.651Z,95088.03
2023-04-22T16:30:59.232Z,95097.63
2023-04-22T16:33:25.872Z,95101.53
2023-04-22T16:35:52.377Z,95087.44
2023-04-22T16:38:18.846Z,95099.94
2023-04-22T16:40:45.502Z,95088.13
2023-04-22T16:43:12.875Z,95087.34
2023-04-22T16:45:39.457Z,95087.22
2023-04-22T16:48:06.008Z,95094.44
2023-04-22T16:50:32.537Z,95091.22
2023-04-22T16:52:59.017Z,95096.84
2023-04-22T16:55:25.549Z,95085.97
2023-04-22T16:57:52.124Z,95092.38
2023-04-22T17:00:18.722Z,95090.34
2023-04-22T17:02:45.586Z,95091.44
2023-04-22T17:05:12.198Z,95092.25
2023-04-22T17:07:38.658Z,95092.50
2023-04-22T17:10:05.874Z,95090.31
2023-04-22T17:12:32.542Z,95081.63
2023-04-22T17:14:59.063Z,95088.25
2023-04-22T17:17:26.526Z,95084.84
2023-04-22T17:19:52.976Z,95080.03
2023-04-22T17:22:19.608Z,95088.97
2023-04-22T17:24:46.328Z,95086.91
2023-04-22T17:27:15.081Z,95096.50
2023-04-22T17:29:41.838Z,95092.84
2023-04-22T17:32:08.492Z,95084.97
2023-04-22T17:34:34.998Z,95080.59
2023-04-22T17:37:01.460Z,95087.59
2023-04-22T17:39:27.902Z,95091.03
2023-04-22T17:41:54.624Z,95076.16
2023-04-22T17:44:21.125Z,95076.38
2023-04-22T17:46:47.660Z,95080.72
2023-04-22T17:49:14.144Z,95080.38
2023-04-22T17:51:40.713Z,95085.88
2023-04-22T17:54:07.180Z,95076.84
2023-04-22T17:56:33.761Z,95079.13
2023-04-22T17:59:00.711Z,95083.47
2023-04-22T18:01:29.555Z,95084.28
2023-04-22T18:03:56.780Z,95088.28
2023-04-22T18:06:23.316Z,95093.31
2023-04-22T18:08:49.773Z,95092.84
2023-04-22T18:11:16.313Z,95083.38
2023-04-22T18:13:42.972Z,95099.03
2023-04-22T18:16:09.479Z,95092.75
2023-04-22T18:18:35.994Z,95095.84
2023-04-22T18:21:02.509Z,95095.84
2023-04-22T18:23:29.052Z,95096.19
2023-04-22T18:25:55.796Z,95103.63
2023-04-22T18:28:22.338Z,95100.06
2023-04-22T18:30:48.881Z,95100.88
2023-04-22T18:33:15.720Z,95109.09
2023-04-22T18:35:42.297Z,95111.41
2023-04-22T18:38:08.755Z,95103.97
2023-04-22T18:40:35.326Z,95110.25
2023-04-22T18:43:01.803Z,95111.75
2023-04-22T18:45:28.224Z,95116.78
2023-04-22T18:47:54.689Z,95112.09
2023-04-22T18:50:22.296Z,95115.19
2023-04-22T18:52:48.841Z,95107.28
2023-04-22T18:55:15.454Z,95113.91
2023-04-22T18:57:41.912Z,95112.31
2023-04-22T19:00:09.739Z,95122.94
2023-04-22T19:02:39.105Z,95128.78
2023-04-22T19:05:06.776Z,95126.50
2023-04-22T19:07:33.334Z,95125.34
2023-04-22T19:09:59.790Z,95134.41
2023-04-22T19:12:26.321Z,95131.66
2023-04-22T19:14:52.801Z,95128.56
2023-04-22T19:17:19.225Z,95140.00
2023-04-22T19:19:46.516Z,95143.56
2023-04-22T19:22:13.052Z,95140.47
2023-04-22T19:24:39.818Z,95149.03
2023-04-22T19:27:12.097Z,95142.28
2023-04-22T19:29:40.716Z,95144.69
2023-04-22T19:32:09.776Z,95154.88
2023-04-22T19:34:37.100Z,95148.59
2023-04-22T19:37:04.286Z,95148.47
2023-04-22T19:39:31.281Z,95150.06
2023-04-22T19:41:58.346Z,95145.03
2023-04-22T19:44:25.192Z,95156.72
2023-04-22T19:46:52.374Z,95150.75
2023-04-22T19:49:19.378Z,95150.63
2023-04-22T19:51:46.437Z,95157.56
2023-04-22T19:54:13.413Z,95155.84
2023-04-22T19:56:41.303Z,95154.34
2023-04-22T19:59:08.397Z,95150.91
2023-04-22T20:01:35.624Z,95148.50
2023-04-22T20:04:04.125Z,95153.88
2023-04-22T20:06:32.476Z,95149.84
2023-04-22T20:08:59.828Z,95155.22
2023-04-22T20:11:26.669Z,95156.25
2023-04-22T20:13:53.317Z,95150.97
2023-04-22T20:16:20.688Z,95160.66
2023-04-22T20:18:48.336Z,95156.31
2023-04-22T20:21:16.285Z,95150.84
2023-04-22T20:23:44.683Z,95148.31
2023-04-22T20:26:11.980Z,95159.28
2023-04-22T20:28:47.009Z,95156.88
2023-04-22T20:31:14.656Z,95158.22
2023-04-22T20:33:41.207Z,95154.69
2023-04-22T20:36:08.055Z,95147.81
2023-04-22T20:38:36.945Z,95162.66
2023-04-22T20:41:05.739Z,95153.97
2023-04-22T20:43:33.375Z,95157.16
2023-04-22T20:45:59.993Z,95155.56
2023-04-22T20:48:26.489Z,95155.75
2023-04-22T20:50:52.970Z,95153.19
2023-04-22T20:53:19.509Z,95158.22
2023-04-22T20:55:46.094Z,95165.19
2023-04-22T20:58:12.946Z,95154.09
2023-04-22T21:00:39.420Z,95157.97
2023-04-22T21:03:08.958Z,95162.63
2023-04-22T21:05:41.083Z,95155.56
2023-04-22T21:08:25.402Z,95153.81
2023-04-22T21:10:53.934Z,95159.31
2023-04-22T21:13:21.037Z,95157.38
2023-04-22T21:15:57.674Z,95149.13
2023-04-22T21:18:26.225Z,95152.22
2023-04-22T21:20:53.885Z,95155.41
2023-04-22T21:23:20.954Z,95156.56
2023-04-22T21:25:50.818Z,95153.81
2023-04-22T21:28:17.850Z,95161.25
2023-04-22T21:30:44.537Z,95165.91
2023-04-22T21:33:11.009Z,95161.56
2023-04-22T21:35:39.205Z,95160.78
2023-04-22T21:40:32.876Z,95155.16
2023-04-22T21:43:02.217Z,95158.22
2023-04-22T21:45:28.622Z,95174.69
2023-04-22T21:47:55.270Z,95167.94
2023-04-22T21:50:23.010Z,95166.31
2023-04-22T21:52:49.661Z,95176.16
2023-04-22T21:55:16.179Z,95162.78
2023-04-22T21:57:42.862Z,95171.00
2023-04-22T22:00:19.010Z,95168.25
2023-04-22T22:02:46.568Z,95162.78
2023-04-22T22:05:14.727Z,95166.31
2023-04-22T22:07:42.382Z,95168.94
2023-04-22T22:10:20.602Z,95172.34
2023-04-22T22:12:47.561Z,95174.94
2023-04-22T22:15:16.274Z,95182.69
2023-04-22T22:17:43.625Z,95181.09
2023-04-22T22:20:15.162Z,95181.09
2023-04-22T22:22:42.788Z,95169.00
2023-04-22T22:25:11.492Z,95166.13
2023-04-22T22:27:40.908Z,95177.41
2023-04-22T22:30:08.618Z,95163.25
2023-04-22T22:32:36.593Z,95171.00
2023-04-22T22:35:03.473Z,95172.47
2023-04-22T22:37:30.288Z,95181.00
2023-04-22T22:39:56.796Z,95177.31
2023-04-22T22:42:23.356Z,95182.78
2023-04-22T22:44:49.808Z,95174.88
2023-04-22T22:47:19.373Z,95179.56
2023-04-22T22:49:46.188Z,95178.09
2023-04-22T22:52:13.221Z,95176.97
2023-04-22T22:54:40.501Z,95179.56
2023-04-22T22:57:07.523Z,95183.09
2023-04-22T22:59:34.967Z,95186.66
2023-04-22T23:02:01.482Z,95185.84
2023-04-22T23:04:28.581Z,95183.09
2023-04-22T23:06:55.713Z,95187.44
2023-04-22T23:09:22.291Z,95188.25
2023-04-22T23:11:51.695Z,95191.31
2023-04-22T23:14:19.998Z,95189.25
2023-04-22T23:16:47.217Z,95180.91
2023-04-22T23:19:15.026Z,95188.97
2023-04-22T23:21:42.191Z,95186.72
2023-04-22T23:24:09.697Z,95188.50
2023-04-22T23:26:37.082Z,95184.69
2023-04-22T23:29:07.277Z,95186.16
2023-04-22T23:31:34.747Z,95198.56
2023-04-22T23:34:04.521Z,95184.41
2023-04-22T23:36:33.592Z,95182.78
2023-04-22T23:39:00.874Z,95182.00
2023-04-22T23:41:27.635Z,95177.19
2023-04-22T23:43:54.211Z,95172.22
2023-04-22T23:46:20.657Z,95173.81
2023-04-22T23:48:47.290Z,95181.22
2023-04-22T23:51:16.319Z,95175.09
2023-04-22T23:53:46.578Z,95165.75
2023-04-22T23:56:14.168Z,95174.91
2023-04-22T23:58:40.964Z,95171.47
